createdAt,value
2023-09-29T00:02:03.546Z,99.90
2023-09-29T00:08:10.039Z,99.90
2023-09-29T00:11:23.326Z,99.90
2023-09-29T00:14:16.009Z,99.90
2023-09-29T00:17:00.588Z,99.90
2023-09-29T00:19:33.207Z,99.90
2023-09-29T00:22:13.860Z,99.90
2023-09-29T00:24:41.357Z,99.90
2023-09-29T00:27:25.486Z,99.90
2023-09-29T00:29:55.576Z,99.90
2023-09-29T00:32:59.704Z,99.90
2023-09-29T00:36:09.390Z,99.90
2023-09-29T00:41:40.352Z,99.90
2023-09-29T00:45:22.443Z,99.90
2023-09-29T00:51:52.068Z,99.90
2023-09-29T00:55:24.639Z,99.90
2023-09-29T00:58:08.064Z,99.90
2023-09-29T01:01:07.840Z,99.90
2023-09-29T01:03:35.470Z,99.90
2023-09-29T01:06:10.489Z,99.90
2023-09-29T01:11:57.090Z,99.90
2023-09-29T01:14:33.054Z,99.90
2023-09-29T01:17:04.704Z,99.90
2023-09-29T01:19:47.578Z,99.90
2023-09-29T01:22:24.262Z,99.90
2023-09-29T01:24:55.152Z,99.90
2023-09-29T01:27:24.563Z,99.90
2023-09-29T01:29:55.897Z,99.90
2023-09-29T01:32:27.016Z,99.90
2023-09-29T01:34:57.566Z,99.90
2023-09-29T01:37:33.016Z,99.90
2023-09-29T01:40:00.593Z,99.90
2023-09-29T01:42:31.041Z,99.90
2023-09-29T01:48:04.807Z,99.90
2023-09-29T01:50:39.588Z,99.90
2023-09-29T01:53:08.497Z,99.90
2023-09-29T01:55:59.247Z,99.90
2023-09-29T01:58:43.347Z,99.90
2023-09-29T02:01:11.047Z,99.90
2023-09-29T02:03:42.389Z,99.90
2023-09-29T02:06:19.794Z,99.90
2023-09-29T02:09:14.317Z,99.90
2023-09-29T02:12:29.420Z,99.90
2023-09-29T02:15:36.239Z,99.90
2023-09-29T02:18:46.012Z,99.90
2023-09-29T02:21:35.291Z,99.90
2023-09-29T02:24:17.958Z,99.90
2023-09-29T02:27:11.888Z,99.90
2023-09-29T02:33:14.472Z,99.90
2023-09-29T02:36:08.560Z,99.90
2023-09-29T02:38:48.006Z,99.90
2023-09-29T02:41:30.175Z,99.90
2023-09-29T02:44:21.648Z,99.90
2023-09-29T02:46:55.463Z,99.90
2023-09-29T02:49:29.279Z,99.90
2023-09-29T02:51:56.494Z,99.90
2023-09-29T02:54:26.977Z,99.90
2023-09-29T02:57:12.973Z,99.90
2023-09-29T02:59:58.966Z,99.90
2023-09-29T03:02:30.672Z,99.90
2023-09-29T03:05:05.292Z,99.90
2023-09-29T03:07:37.285Z,99.90
2023-09-29T03:10:27.991Z,99.90
2023-09-29T03:17:05.023Z,99.90
2023-09-29T03:20:32.626Z,99.90
2023-09-29T03:24:35.663Z,99.90
2023-09-29T03:26:47.007Z,99.90
2023-09-29T03:36:59.434Z,99.90
2023-09-29T03:40:01.012Z,99.90
2023-09-29T03:43:07.261Z,99.90
2023-09-29T03:45:45.287Z,99.90
2023-09-29T03:48:12.843Z,99.90
2023-09-29T03:50:41.296Z,99.90
2023-09-29T03:53:11.382Z,99.90
2023-09-29T03:55:39.153Z,99.90
2023-09-29T03:58:11.746Z,99.90
2023-09-29T04:00:42.562Z,99.90
2023-09-29T04:03:13.040Z,99.90
2023-09-29T04:05:40.719Z,99.90
2023-09-29T04:08:08.216Z,99.90
2023-09-29T04:10:35.419Z,99.90
2023-09-29T04:13:05.404Z,99.90
2023-09-29T04:15:52.890Z,99.90
2023-09-29T04:18:38.466Z,99.90
2023-09-29T04:29:23.929Z,99.90
2023-09-29T04:32:57.186Z,99.90
2023-09-29T04:35:47.845Z,99.90
2023-09-29T04:38:29.384Z,99.90
2023-09-29T04:41:20.214Z,99.90
2023-09-29T04:44:00.193Z,99.90
2023-09-29T04:46:30.842Z,99.90
2023-09-29T04:49:05.504Z,99.90
2023-09-29T04:51:43.636Z,99.90
2023-09-29T04:54:29.745Z,99.90
2023-09-29T04:58:21.740Z,99.90
2023-09-29T05:00:58.748Z,99.90
2023-09-29T05:06:33.404Z,99.90
2023-09-29T05:09:09.318Z,99.90
2023-09-29T05:14:37.765Z,99.90
2023-09-29T05:20:38.250Z,99.90
2023-09-29T05:30:57.519Z,99.90
2023-09-29T05:53:41.874Z,99.90
2023-09-29T05:56:43.392Z,99.90
2023-09-29T06:27:47.659Z,99.90
2023-09-29T06:34:14.852Z,99.90
2023-09-29T07:42:28.766Z,99.90
2023-09-29T08:07:06.199Z,99.90
2023-09-29T08:14:43.729Z,99.90
2023-09-29T08:19:17.827Z,99.90
2023-09-29T08:22:55.708Z,99.90
2023-09-29T08:40:20.978Z,97.00
2023-09-29T09:16:25.544Z,67.90
2023-09-29T09:19:15.293Z,69.80
2023-09-29T09:22:46.344Z,69.40
2023-09-29T09:38:43.997Z,60.70
2023-09-29T09:41:39.170Z,62.00
2023-09-29T09:51:08.913Z,52.10
2023-09-29T09:59:26.655Z,54.20
2023-09-29T10:01:57.892Z,49.40
2023-09-29T10:05:07.959Z,47.60
2023-09-29T10:08:07.550Z,52.20
2023-09-29T10:15:45.193Z,46.40
2023-09-29T10:19:16.938Z,42.70
2023-09-29T10:21:47.617Z,35.90
2023-09-29T10:25:23.534Z,38.50
2023-09-29T10:28:07.097Z,43.80
2023-09-29T10:30:41.646Z,47.40
2023-09-29T10:33:17.146Z,40.00
2023-09-29T10:35:50.462Z,41.60
2023-09-29T10:38:42.155Z,37.60
2023-09-29T10:46:34.195Z,37.30
2023-09-29T10:53:26.513Z,27.10
2023-09-29T10:56:11.645Z,33.10
2023-09-29T10:56:35.163Z,28.70
2023-09-29T10:59:57.603Z,29.60
2023-09-29T11:03:15.718Z,26.10
2023-09-29T11:06:34.527Z,22.60
2023-09-29T11:09:27.698Z,16.80
2023-09-29T11:12:09.652Z,22.40
2023-09-29T11:14:41.492Z,22.90
2023-09-29T11:20:54.917Z,21.10
2023-09-29T11:23:23.018Z,21.00
2023-09-29T11:25:53.221Z,19.90
2023-09-29T11:28:34.943Z,15.10
2023-09-29T11:31:34.245Z,11.20
2023-09-29T11:34:34.744Z,12.80
2023-09-29T11:37:07.001Z,11.70
2023-09-29T11:40:00.793Z,13.50
2023-09-29T11:45:48.975Z,8.90
2023-09-29T11:48:17.397Z,9.40
2023-09-29T11:57:10.707Z,15.50
2023-09-29T12:00:12.248Z,9.00
2023-09-29T12:02:43.351Z,6.80
2023-09-29T12:05:47.301Z,6.70
2023-09-29T12:08:38.465Z,3.40
2023-09-29T12:15:38.092Z,1.30
2023-09-29T12:21:21.035Z,1.00
2023-09-29T12:24:19.476Z,1.70
2023-09-29T12:27:16.039Z,1.00
2023-09-29T12:29:43.343Z,1.00
2023-09-29T12:32:11.013Z,1.00
2023-09-29T12:34:38.484Z,1.00
2023-09-29T12:37:05.922Z,1.00
2023-09-29T12:39:33.403Z,1.00
2023-09-29T12:42:00.570Z,1.00
2023-09-29T12:44:40.682Z,1.00
2023-09-29T12:47:13.423Z,1.00
2023-09-29T12:49:41.002Z,1.00
2023-09-29T12:52:11.780Z,1.00
2023-09-29T12:54:41.926Z,1.00
2023-09-29T12:57:13.191Z,1.00
2023-09-29T12:59:44.032Z,1.00
2023-09-29T13:02:12.670Z,1.00
2023-09-29T13:04:40.123Z,1.00
2023-09-29T13:07:11.734Z,1.00
2023-09-29T13:09:39.034Z,1.00
2023-09-29T13:12:10.740Z,1.00
2023-09-29T13:14:44.848Z,1.00
2023-09-29T13:17:13.379Z,1.00
2023-09-29T13:19:49.971Z,1.00
2023-09-29T13:26:48.986Z,1.00
2023-09-29T13:29:19.486Z,1.00
2023-09-29T13:31:56.475Z,1.00
2023-09-29T13:34:24.392Z,1.00
2023-09-29T13:36:54.216Z,1.00
2023-09-29T13:39:48.842Z,1.00
2023-09-29T13:42:16.240Z,1.00
2023-09-29T13:44:44.171Z,1.00
2023-09-29T13:47:29.109Z,1.00
2023-09-29T13:49:56.731Z,1.00
2023-09-29T13:52:35.106Z,1.00
2023-09-29T13:55:02.409Z,1.00
2023-09-29T13:57:47.809Z,1.00
2023-09-29T14:00:24.792Z,1.00
2023-09-29T14:02:59.628Z,1.00
2023-09-29T14:05:48.055Z,1.00
2023-09-29T14:08:15.970Z,1.00
2023-09-29T14:11:33.490Z,1.00
2023-09-29T14:14:35.666Z,1.00
2023-09-29T14:17:33.942Z,1.00
2023-09-29T14:20:04.372Z,1.00
2023-09-29T14:22:38.891Z,1.00
2023-09-29T14:25:10.833Z,1.00
2023-09-29T14:27:38.260Z,1.00
2023-09-29T14:30:09.521Z,1.00
2023-09-29T14:32:37.036Z,1.00
2023-09-29T14:35:16.412Z,1.00
2023-09-29T14:37:46.374Z,1.00
2023-09-29T14:40:16.961Z,1.00
2023-09-29T14:42:44.753Z,1.00
2023-09-29T14:45:37.646Z,1.00
2023-09-29T14:48:10.907Z,1.00
2023-09-29T14:50:47.950Z,1.00
2023-09-29T14:53:27.251Z,1.00
2023-09-29T14:55:58.031Z,1.00
2023-09-29T14:58:29.405Z,1.00
2023-09-29T15:00:59.910Z,1.00
2023-09-29T15:03:36.173Z,1.00
2023-09-29T15:09:35.084Z,1.00
2023-09-29T15:12:02.575Z,1.00
2023-09-29T15:14:59.701Z,1.00
2023-09-29T15:17:32.883Z,1.00
2023-09-29T15:20:37.913Z,1.00
2023-09-29T15:23:07.696Z,1.00
2023-09-29T15:25:38.480Z,1.00
2023-09-29T15:28:34.075Z,1.00
2023-09-29T15:35:20.798Z,1.00
2023-09-29T15:37:48.519Z,1.00
2023-09-29T15:40:19.202Z,1.00
2023-09-29T15:42:46.818Z,1.00
2023-09-29T15:45:14.324Z,1.00
2023-09-29T15:47:41.586Z,1.00
2023-09-29T15:50:23.412Z,1.00
2023-09-29T15:52:51.078Z,1.00
2023-09-29T15:55:19.068Z,1.00
2023-09-29T15:57:46.297Z,1.00
2023-09-29T16:00:16.713Z,1.00
2023-09-29T16:02:45.054Z,1.00
2023-09-29T16:05:15.941Z,1.00
2023-09-29T16:07:43.182Z,1.00
2023-09-29T16:10:18.729Z,1.00
2023-09-29T16:12:52.644Z,1.00
2023-09-29T16:15:20.148Z,1.00
2023-09-29T16:17:47.316Z,1.00
2023-09-29T16:20:14.532Z,1.00
2023-09-29T16:22:41.754Z,1.00
2023-09-29T16:25:09.639Z,1.00
2023-09-29T16:27:36.923Z,1.00
2023-09-29T16:30:05.982Z,1.00
2023-09-29T16:32:33.341Z,1.00
2023-09-29T16:35:01.612Z,1.00
2023-09-29T16:37:28.943Z,1.00
2023-09-29T16:39:56.515Z,1.00
2023-09-29T16:42:23.749Z,1.00
2023-09-29T16:44:52.694Z,1.00
2023-09-29T16:47:22.938Z,1.00
2023-09-29T16:49:59.388Z,1.00
2023-09-29T16:52:26.438Z,1.00
2023-09-29T16:54:53.521Z,1.00
2023-09-29T16:57:23.180Z,1.00
2023-09-29T16:59:50.568Z,1.00
2023-09-29T17:02:17.838Z,1.00
2023-09-29T17:04:45.089Z,1.00
2023-09-29T17:07:12.955Z,1.00
2023-09-29T17:09:40.958Z,1.00
2023-09-29T17:12:08.543Z,1.00
2023-09-29T17:14:35.828Z,1.00
2023-09-29T17:17:05.254Z,1.00
2023-09-29T17:19:32.422Z,1.60
2023-09-29T17:22:00.484Z,1.00
2023-09-29T17:24:28.295Z,1.00
2023-09-29T17:26:59.111Z,1.00
2023-09-29T17:29:29.111Z,9.10
2023-09-29T17:31:56.566Z,5.30
2023-09-29T17:34:23.838Z,5.20
2023-09-29T17:36:52.904Z,5.80
2023-09-29T17:39:20.098Z,5.50
2023-09-29T17:41:47.444Z,6.20
2023-09-29T17:44:15.896Z,5.00
2023-09-29T17:46:43.555Z,5.30
2023-09-29T17:49:11.257Z,9.00
2023-09-29T17:51:39.429Z,8.20
2023-09-29T17:54:07.729Z,8.70
2023-09-29T17:56:35.969Z,8.50
2023-09-29T17:59:03.983Z,10.60
2023-09-29T18:01:31.503Z,15.90
2023-09-29T18:03:59.598Z,17.60
2023-09-29T18:06:27.708Z,19.20
2023-09-29T18:08:54.988Z,23.50
2023-09-29T18:11:22.137Z,26.60
2023-09-29T18:13:49.293Z,28.60
2023-09-29T18:16:16.508Z,38.20
2023-09-29T18:18:43.710Z,39.30
2023-09-29T18:21:10.947Z,47.00
2023-09-29T18:23:38.407Z,47.50
2023-09-29T18:26:05.670Z,48.50
2023-09-29T18:28:35.978Z,47.90
2023-09-29T18:31:08.390Z,47.40
2023-09-29T18:33:36.770Z,48.90
2023-09-29T18:36:04.558Z,49.90
2023-09-29T18:38:31.952Z,49.50
2023-09-29T18:41:00.101Z,52.30
2023-09-29T18:43:27.184Z,54.90
2023-09-29T18:46:03.485Z,53.80
2023-09-29T18:48:31.181Z,56.90
2023-09-29T18:51:05.209Z,58.50
2023-09-29T18:53:32.662Z,60.60
2023-09-29T18:56:01.026Z,62.50
2023-09-29T18:58:28.548Z,65.50
2023-09-29T19:00:55.881Z,64.00
2023-09-29T19:03:26.395Z,63.20
2023-09-29T19:06:01.535Z,64.50
2023-09-29T19:08:29.070Z,65.10
2023-09-29T19:10:58.082Z,63.60
2023-09-29T19:13:25.216Z,62.50
2023-09-29T19:15:52.820Z,63.20
2023-09-29T19:18:20.100Z,62.50
2023-09-29T19:21:02.921Z,66.70
2023-09-29T19:23:30.220Z,65.80
2023-09-29T19:25:58.088Z,64.80
2023-09-29T19:28:25.139Z,72.00
2023-09-29T19:30:52.264Z,70.00
2023-09-29T19:33:19.538Z,67.30
2023-09-29T19:35:46.868Z,65.00
2023-09-29T19:38:14.128Z,64.10
2023-09-29T19:40:41.416Z,65.30
2023-09-29T19:43:08.627Z,67.90
2023-09-29T19:45:35.823Z,69.50
2023-09-29T19:48:03.994Z,70.30
2023-09-29T19:50:31.267Z,68.00
2023-09-29T19:53:02.079Z,68.90
2023-09-29T19:55:34.775Z,68.20
2023-09-29T19:58:01.985Z,69.00
2023-09-29T20:00:29.198Z,71.30
2023-09-29T20:02:56.578Z,72.90
2023-09-29T20:05:23.996Z,68.90
2023-09-29T20:07:53.709Z,67.90
2023-09-29T20:10:20.855Z,68.00
2023-09-29T20:12:48.012Z,69.50
2023-09-29T20:15:15.409Z,69.90
2023-09-29T20:17:42.636Z,67.40
2023-09-29T20:20:14.432Z,67.00
2023-09-29T20:22:41.655Z,67.10
2023-09-29T20:25:11.190Z,65.90
2023-09-29T20:27:38.941Z,65.50
2023-09-29T20:30:06.978Z,67.70
2023-09-29T20:32:34.186Z,68.60
2023-09-29T20:35:01.333Z,70.60
2023-09-29T20:37:28.854Z,67.50
2023-09-29T20:39:56.219Z,69.40
2023-09-29T20:42:23.607Z,69.40
2023-09-29T20:44:51.016Z,66.40
2023-09-29T20:47:18.732Z,65.40
2023-09-29T20:49:45.879Z,63.90
2023-09-29T20:52:13.035Z,72.40
2023-09-29T20:54:40.195Z,67.60
2023-09-29T20:57:09.139Z,69.20
2023-09-29T20:59:36.389Z,67.70
2023-09-29T21:02:03.985Z,68.30
2023-09-29T21:04:31.212Z,67.80
2023-09-29T21:06:58.427Z,67.70
2023-09-29T21:09:25.604Z,66.80
2023-09-29T21:11:53.056Z,67.10
2023-09-29T21:14:20.273Z,69.80
2023-09-29T21:16:47.346Z,68.50
2023-09-29T21:19:14.504Z,67.30
2023-09-29T21:21:41.666Z,67.30
2023-09-29T21:24:21.004Z,66.50
2023-09-29T21:26:56.513Z,68.70
2023-09-29T21:29:24.300Z,66.90
2023-09-29T21:31:53.275Z,67.90
2023-09-29T21:34:20.787Z,66.60
2023-09-29T21:36:47.902Z,66.30
2023-09-29T21:39:15.189Z,67.70
2023-09-29T21:41:43.374Z,65.80
2023-09-29T21:44:43.057Z,68.40
2023-09-29T21:47:11.291Z,69.70
2023-09-29T21:49:38.980Z,69.50
2023-09-29T21:52:06.698Z,70.50
2023-09-29T21:54:33.799Z,68.60
2023-09-29T21:57:00.885Z,69.80
2023-09-29T21:59:28.328Z,72.60
2023-09-29T22:01:55.400Z,73.70
2023-09-29T22:04:36.419Z,73.60
2023-09-29T22:07:03.743Z,76.00
2023-09-29T22:09:31.145Z,74.50
2023-09-29T22:12:02.285Z,75.70
2023-09-29T22:14:31.655Z,75.50
2023-09-29T22:16:59.617Z,75.40
2023-09-29T22:19:26.897Z,74.30
2023-09-29T22:21:54.040Z,75.00
2023-09-29T22:24:22.368Z,76.80
2023-09-29T22:26:49.788Z,76.30
2023-09-29T22:29:17.809Z,76.70
2023-09-29T22:31:45.671Z,77.40
2023-09-29T22:34:13.084Z,77.30
2023-09-29T22:36:40.290Z,79.30
2023-09-29T22:39:08.438Z,79.50
2023-09-29T22:41:35.776Z,79.70
2023-09-29T22:44:02.906Z,80.10
2023-09-29T22:46:30.263Z,81.00
2023-09-29T22:48:57.495Z,83.40
2023-09-29T22:51:25.237Z,83.60
2023-09-29T22:53:56.116Z,84.30
2023-09-29T22:56:23.489Z,86.10
2023-09-29T22:58:50.595Z,87.60
2023-09-29T23:01:17.922Z,87.60
2023-09-29T23:03:45.208Z,89.10
2023-09-29T23:06:12.751Z,89.90
2023-09-29T23:08:40.822Z,91.20
2023-09-29T23:11:09.948Z,91.20
2023-09-29T23:13:38.755Z,93.10
2023-09-29T23:16:06.073Z,94.30
2023-09-29T23:18:33.278Z,95.70
2023-09-29T23:21:00.934Z,95.50
2023-09-29T23:23:28.576Z,95.70
2023-09-29T23:25:55.665Z,96.30
2023-09-29T23:28:23.339Z,96.00
2023-09-29T23:30:51.112Z,95.70
2023-09-29T23:33:20.585Z,95.70
2023-09-29T23:35:48.094Z,96.40
2023-09-29T23:38:15.322Z,96.50
2023-09-29T23:40:42.522Z,97.10
2023-09-29T23:43:09.833Z,97.40
2023-09-29T23:45:37.161Z,97.60
2023-09-29T23:48:05.071Z,97.50
2023-09-29T23:50:33.919Z,98.30
2023-09-29T23:53:01.361Z,98.80
2023-09-29T23:55:33.255Z,99.00
2023-09-29T23:58:03.069Z,99.30
